Time;durP1;ratioP1;P1;durP2;ratioP2;P2;SDS_P1;SDS_P2;PMS_P1;PMS_P2;Temp;Humidity;BMP_temperature;BMP_pressure;BME280_temperature;BME280_humidity;BME280_pressure;Samples;Min_cycle;Max_cycle;Signal;HPM_P1;HPM_P2
2022/10/03 00:02:35;;;;;;;2.80;1.77;;;12.50;99.90;;;;;;5078431;28;20452;-74
2022/10/03 00:05:18;;;;;;;2.50;2.00;;;12.60;99.90;;;;;;5114486;28;21100;-74
2022/10/03 00:07:59;;;;;;;2.17;1.50;;;12.50;99.90;;;;;;5101425;28;20450;-75
2022/10/03 00:10:35;;;;;;;3.83;1.53;;;12.60;99.90;;;;;;5115352;28;20815;-74
2022/10/03 00:13:19;;;;;;;1.73;1.57;;;12.60;99.90;;;;;;5115107;28;20471;-76
2022/10/03 00:16:00;;;;;;;2.50;1.57;;;12.60;99.90;;;;;;5118546;28;20519;-74
2022/10/03 00:18:39;;;;;;;2.00;1.50;;;12.60;99.90;;;;;;5117558;28;20442;-74
2022/10/03 00:21:19;;;;;;;1.57;1.47;;;12.60;99.90;;;;;;5120502;28;20440;-75
2022/10/03 00:23:54;;;;;;;1.63;1.37;;;12.50;99.90;;;;;;5119747;28;20450;-74
2022/10/03 00:26:29;;;;;;;1.90;1.67;;;12.60;99.90;;;;;;5121480;28;20454;-73
2022/10/03 00:29:19;;;;;;;5.80;2.40;;;12.60;99.90;;;;;;5110590;28;20443;-74
2022/10/03 00:31:56;;;;;;;1.80;1.60;;;12.60;99.90;;;;;;5130375;28;20450;-74
2022/10/03 00:34:35;;;;;;;2.30;1.80;;;12.50;99.90;;;;;;5130346;28;20499;-74
2022/10/03 00:37:19;;;;;;;5.57;2.70;;;12.40;99.90;;;;;;5116958;28;20491;-75
2022/10/03 00:40:11;;;;;;;2.53;1.67;;;12.50;99.90;;;;;;5129582;28;20448;-75
2022/10/03 00:43:12;;;;;;;2.80;1.93;;;12.50;99.90;;;;;;5102585;28;21037;-75
2022/10/03 00:45:57;;;;;;;2.13;1.93;;;12.50;99.90;;;;;;5115203;28;20538;-75
2022/10/03 00:48:52;;;;;;;3.23;2.27;;;12.50;99.90;;;;;;5114177;28;20793;-74
2022/10/03 00:51:31;;;;;;;1.93;1.73;;;12.50;99.90;;;;;;5091194;28;20523;-74
2022/10/03 00:54:10;;;;;;;2.10;1.53;;;12.30;99.90;;;;;;5113669;28;20472;-73
2022/10/03 00:57:01;;;;;;;4.33;1.90;;;12.40;99.90;;;;;;5113671;28;20440;-73
2022/10/03 00:59:39;;;;;;;2.10;1.90;;;12.40;99.90;;;;;;5114137;28;20447;-74
2022/10/03 01:02:36;;;;;;;4.17;2.00;;;12.30;99.90;;;;;;5113239;28;20501;-74
2022/10/03 01:05:11;;;;;;;2.77;1.87;;;12.60;99.90;;;;;;5113709;28;20891;-74
2022/10/03 01:08:11;;;;;;;1.80;1.50;;;12.50;99.90;;;;;;5113857;28;20444;-74
2022/10/03 01:10:45;;;;;;;3.27;1.60;;;12.50;99.90;;;;;;5113712;28;20507;-75
2022/10/03 01:13:30;;;;;;;3.23;1.90;;;12.30;99.90;;;;;;5112819;28;20471;-75
2022/10/03 01:16:09;;;;;;;2.10;1.50;;;12.40;99.90;;;;;;5100122;28;20500;-74
2022/10/03 01:18:47;;;;;;;2.43;2.13;;;12.40;99.90;;;;;;5113689;28;20450;-75
2022/10/03 01:21:22;;;;;;;1.47;1.30;;;12.50;99.90;;;;;;5113152;28;20545;-75
2022/10/03 01:24:10;;;;;;;4.00;2.13;;;12.50;99.90;;;;;;5113059;28;20443;-72
2022/10/03 01:26:57;;;;;;;3.90;3.03;;;12.50;99.90;;;;;;5112962;28;20753;-74
2022/10/03 01:32:43;;;;;;;2.50;1.97;;;12.50;99.90;;;;;;5106728;28;20588;-74
2022/10/03 01:35:21;;;;;;;2.83;2.20;;;12.40;99.90;;;;;;5112613;28;20500;-74
2022/10/03 01:37:56;;;;;;;2.23;1.90;;;12.40;99.90;;;;;;5112719;28;20439;-73
2022/10/03 01:40:28;;;;;;;1.93;1.73;;;12.40;99.90;;;;;;5113267;28;20469;-74
2022/10/03 01:43:05;;;;;;;2.80;2.47;;;12.20;99.90;;;;;;5112623;28;20448;-74
2022/10/03 01:45:39;;;;;;;2.50;2.00;;;;;;;;;;5112968;28;20440;-74
2022/10/03 01:48:08;;;;;;;3.30;2.20;;;;;;;;;;5112159;28;20446;-74
2022/10/03 01:50:37;;;;;;;3.60;2.07;;;;;;;;;;5112734;28;20444;-74
2022/10/03 01:53:07;;;;;;;3.00;1.80;;;;;;;;;;5112169;28;20833;-74
2022/10/03 01:55:38;;;;;;;2.30;2.10;;;;;;;;;;5112585;28;20454;-74
2022/10/03 01:58:08;;;;;;;2.57;2.10;;;;;;;;;;5111466;28;20467;-74
2022/10/03 02:00:43;;;;;;;2.20;1.83;;;;;;;;;;5112733;28;20440;-74
2022/10/03 02:03:15;;;;;;;2.77;2.40;;;;;;;;;;5112206;28;20454;-74
2022/10/03 02:05:48;;;;;;;2.53;2.10;;;;;;;;;;5112763;28;20534;-76
2022/10/03 02:08:22;;;;;;;2.73;2.43;;;;;;;;;;5112039;28;20444;-74
2022/10/03 02:10:52;;;;;;;3.10;2.27;;;;;;;;;;5112272;28;20476;-75
2022/10/03 02:13:23;;;;;;;3.53;2.50;;;;;;;;;;5112594;28;20831;-73
2022/10/03 02:15:56;;;;;;;2.90;2.40;;;;;;;;;;5112333;28;20445;-75
2022/10/03 02:18:28;;;;;;;4.57;3.17;;;;;;;;;;5112412;28;20440;-74
2022/10/03 02:21:08;;;;;;;3.87;2.50;;;;;;;;;;5099883;28;20443;-74
2022/10/03 02:23:40;;;;;;;3.67;2.53;;;;;;;;;;5112539;28;20440;-74
2022/10/03 02:26:19;;;;;;;2.27;1.97;;;;;;;;;;5111442;28;20538;-74
2022/10/03 02:29:04;;;;;;;3.37;2.47;;;;;;;;;;5112267;28;20435;-74
2022/10/03 02:31:46;;;;;;;3.80;2.97;;;;;;;;;;5112112;28;20527;-74
2022/10/03 02:34:25;;;;;;;3.10;2.20;;;;;;;;;;5111819;28;20475;-74
2022/10/03 02:37:16;;;;;;;3.20;2.40;;;;;;;;;;5110965;28;20470;-74
2022/10/03 02:39:55;;;;;;;3.40;2.53;;;;;;;;;;5112249;28;20446;-77
2022/10/03 02:42:41;;;;;;;4.07;2.77;;;;;;;;;;5111958;28;20444;-74
2022/10/03 02:45:42;;;;;;;3.70;2.60;;;;;;;;;;5110898;28;20448;-74
2022/10/03 02:48:27;;;;;;;3.73;3.00;;;;;;;;;;5047943;28;20445;-74
2022/10/03 02:51:22;;;;;;;3.13;2.60;;;;;;;;;;5043137;28;20453;-76
2022/10/03 02:54:06;;;;;;;3.20;2.50;;;;;;;;;;5045272;28;21078;-72
2022/10/03 02:56:51;;;;;;;3.03;2.70;;;;;;;;;;5098910;28;20462;-74
2022/10/03 02:59:30;;;;;;;4.47;3.30;;;;;;;;;;5111419;28;20447;-74
2022/10/03 03:02:15;;;;;;;2.57;2.37;;;;;;;;;;5110995;28;20440;-74
2022/10/03 03:04:58;;;;;;;4.83;2.90;;;;;;;;;;5080603;28;20443;-73
2022/10/03 03:07:37;;;;;;;3.57;2.97;;;;;;;;;;5110992;28;20446;-76
2022/10/03 03:10:30;;;;;;;4.40;3.30;;;;;;;;;;5111026;28;20439;-74
2022/10/03 03:13:12;;;;;;;3.37;2.77;;;;;;;;;;5099547;28;20479;-74
2022/10/03 03:15:50;;;;;;;7.10;3.00;;;;;;;;;;5109337;28;20452;-74
2022/10/03 03:18:22;;;;;;;4.80;3.63;;;;;;;;;;5111054;28;20443;-74
2022/10/03 03:20:54;;;;;;;4.50;3.30;;;;;;;;;;5099272;28;20444;-72
2022/10/03 03:23:34;;;;;;;4.57;3.20;;;;;;;;;;5111158;28;20945;-74
2022/10/03 03:26:10;;;;;;;4.07;3.70;;;;;;;;;;5110400;28;20941;-74
2022/10/03 03:28:43;;;;;;;3.37;3.00;;;;;;;;;;5110995;28;21250;-74
2022/10/03 03:31:12;;;;;;;4.93;3.57;;;;;;;;;;5110998;28;20497;-75
2022/10/03 03:33:44;;;;;;;3.40;3.07;;;;;;;;;;5100712;28;21013;-74
2022/10/03 03:36:17;;;;;;;3.30;2.63;;;;;;;;;;5114904;28;20443;-74
2022/10/03 03:38:52;;;;;;;4.83;3.57;;;;;;;;;;5115743;28;20447;-74
2022/10/03 03:41:27;;;;;;;5.33;3.30;;;;;;;;;;5115433;28;20451;-74
2022/10/03 03:44:05;;;;;;;6.77;3.80;;;;;;;;;;5114830;28;20451;-73
2022/10/03 03:46:37;;;;;;;9.30;3.70;;;;;;;;;;5114970;28;20489;-74
2022/10/03 03:49:15;;;;;;;5.40;3.50;;;;;;;;;;5114664;28;20452;-74
2022/10/03 03:51:43;;;;;;;3.30;2.83;;;;;;;;;;5103203;28;20825;-74
2022/10/03 03:54:25;;;;;;;4.10;3.70;;;;;;;;;;5113977;28;20491;-74
2022/10/03 03:57:00;;;;;;;8.50;3.77;;;;;;;;;;5111585;28;20546;-72
2022/10/03 03:59:36;;;;;;;6.03;3.47;;;;;;;;;;5114646;28;20466;-74
2022/10/03 04:02:11;;;;;;;5.17;3.17;;;;;;;;;;5114180;28;20452;-73
2022/10/03 04:04:44;;;;;;;5.60;3.80;;;;;;;;;;5114977;28;20912;-74
2022/10/03 04:07:18;;;;;;;4.10;3.47;;;;;;;;;;5113599;28;20438;-76
2022/10/03 04:09:54;;;;;;;4.63;3.80;;;;;;;;;;5115833;28;20449;-74
2022/10/03 04:12:28;;;;;;;6.13;4.47;;;;;;;;;;5117873;28;20529;-73
2022/10/03 04:15:06;;;;;;;4.30;3.90;;;;;;;;;;5123037;28;20467;-73
2022/10/03 04:20:45;;;;;;;5.90;3.70;;;;;;;;;;5128872;28;20866;-73
2022/10/03 04:23:17;;;;;;;4.43;3.53;;;;;;;;;;5128052;28;20438;-73
2022/10/03 04:25:53;;;;;;;5.83;3.50;;;;;;;;;;5126901;28;20435;-73
2022/10/03 04:28:35;;;;;;;4.90;3.70;;;;;;;;;;5120014;28;20492;-74
2022/10/03 04:31:07;;;;;;;5.50;3.67;;;;;;;;;;5129960;27;20775;-73
2022/10/03 04:33:47;;;;;;;6.40;4.43;;;;;;;;;;5129529;27;20475;-74
2022/10/03 04:36:29;;;;;;;5.10;3.83;;;;;;;;;;5116732;28;20444;-73
2022/10/03 04:39:05;;;;;;;4.47;3.10;;;;;;;;;;5118133;28;20790;-73
2022/10/03 04:41:37;;;;;;;5.53;3.63;;;;;;;;;;5115414;28;20459;-73
2022/10/03 04:44:11;;;;;;;6.80;3.50;;;;;;;;;;5113181;28;20444;-73
2022/10/03 04:46:43;;;;;;;5.03;3.73;;;;;;;;;;5114133;28;20779;-74
2022/10/03 04:49:13;;;;;;;6.70;5.17;;;;;;;;;;5113792;28;20439;-75
2022/10/03 04:51:45;;;;;;;6.70;5.20;;;;;;;;;;5114429;28;20492;-74
2022/10/03 04:54:17;;;;;;;8.20;4.20;;;;;;;;;;5113408;28;20472;-73
2022/10/03 04:56:49;;;;;;;4.97;3.57;;;;;;;;;;5113740;28;20475;-75
2022/10/03 04:59:27;;;;;;;5.03;3.67;;;;;;;;;;5113955;28;20525;-73
2022/10/03 05:02:00;;;;;;;6.77;4.37;;;;;;;;;;5113448;28;20453;-73
2022/10/03 05:04:33;;;;;;;5.97;4.10;;;;;;;;;;5113571;27;20479;-74
2022/10/03 05:07:06;;;;;;;4.97;4.13;;;;;;;;;;5112726;28;20787;-74
2022/10/03 05:09:37;;;;;;;7.43;3.60;;;;;;;;;;5113625;28;20419;-74
2022/10/03 05:12:08;;;;;;;4.17;3.67;;;;;;;;;;5112790;28;20895;-74
2022/10/03 05:14:48;;;;;;;7.30;4.60;;;;;;;;;;5113432;28;20481;-74
2022/10/03 05:17:19;;;;;;;5.43;3.73;;;;;;;;;;5112954;28;20504;-74
2022/10/03 05:19:51;;;;;;;6.07;3.50;;;;;;;;;;5113467;28;20926;-75
2022/10/03 05:22:33;;;;;;;4.93;3.63;;;;;;;;;;5113852;28;20447;-74
2022/10/03 05:25:05;;;;;;;8.50;4.93;;;;;;;;;;5112991;28;20526;-74
2022/10/03 05:27:38;;;;;;;5.17;3.83;;;;;;;;;;5112972;28;20456;-73
2022/10/03 05:30:09;;;;;;;8.00;4.97;;;;;;;;;;5112848;28;20454;-74
2022/10/03 05:32:41;;;;;;;6.40;4.23;;;;;;;;;;5113084;28;20448;-74
2022/10/03 05:35:25;;;;;;;6.53;4.27;;;;;;;;;;5112401;28;20463;-74
2022/10/03 05:38:04;;;;;;;6.73;3.70;;;;;;;;;;5112250;28;20786;-73
2022/10/03 05:40:33;;;;;;;8.23;4.23;;;;;;;;;;5113202;28;20448;-74
2022/10/03 05:43:02;;;;;;;4.93;3.57;;;;;;;;;;5111798;28;20950;-74
2022/10/03 05:45:33;;;;;;;6.50;4.00;;;;;;;;;;5112598;28;20452;-74
2022/10/03 05:48:18;;;;;;;5.10;3.50;;;;;;;;;;5111808;28;20451;-74
2022/10/03 05:51:01;;;;;;;5.90;3.60;;;;;;;;;;5098725;28;20455;-74
2022/10/03 05:53:46;;;;;;;5.70;4.27;;;;;;;;;;5101326;28;20478;-74
2022/10/03 05:56:20;;;;;;;4.90;3.70;;;;;;;;;;5111057;28;20443;-74
2022/10/03 05:59:11;;;;;;;4.20;3.70;;;;;;;;;;5112943;28;20450;-74
2022/10/03 06:02:01;;;;;;;6.13;3.83;;;;;;;;;;5060327;28;20509;-74
2022/10/03 06:04:41;;;;;;;6.33;4.37;;;;;;;;;;5111094;28;20938;-74
2022/10/03 06:07:15;;;;;;;6.07;4.43;;;;;;;;;;5111496;28;20447;-74
2022/10/03 06:09:58;;;;;;;13.70;4.83;;;;;;;;;;5112537;28;20444;-75
2022/10/03 06:12:29;;;;;;;5.20;3.90;;;;;;;;;;5079032;28;20867;-75
2022/10/03 06:15:12;;;;;;;5.33;4.10;;;;;;;;;;5111833;28;20478;-75
2022/10/03 06:17:53;;;;;;;7.97;5.13;;;;;;;;;;5099203;28;20451;-75
2022/10/03 06:20:29;;;;;;;8.70;4.57;;;;;;;;;;5112849;28;20440;-75
2022/10/03 06:23:13;;;;;;;8.57;4.80;;;;;;;;;;5112142;28;20440;-75
2022/10/03 06:26:04;;;;;;;7.80;5.60;;;;;;;;;;5099073;28;20444;-76
2022/10/03 06:28:50;;;;;;;8.03;4.73;;;;;;;;;;5112352;28;20447;-75
2022/10/03 06:31:50;;;;;;;7.23;4.83;;;;;;;;;;5112787;28;20793;-75
2022/10/03 06:34:35;;;;;;;11.70;5.17;;;;;;;;;;5020970;28;20483;-75
2022/10/03 06:37:25;;;;;;;8.20;5.50;;;;;;;;;;5090621;28;20459;-75
2022/10/03 06:40:20;;;;;;;7.83;4.77;;;;;;;;;;5112071;28;20477;-74
2022/10/03 06:43:05;;;;;;;9.63;5.90;;;;;;;;;;5112409;28;20451;-74
2022/10/03 06:45:47;;;;;;;7.77;5.83;;;;;;;;;;5111647;28;20452;-75
2022/10/03 06:48:26;;;;;;;9.93;5.73;;;;;;;;;;5111889;28;20447;-75
2022/10/03 06:51:01;;;;;;;7.40;5.07;;;;;;;;;;5105207;28;20443;-74
2022/10/03 06:53:38;;;;;;;7.87;5.30;;;;;;;;;;5111845;28;20446;-75
2022/10/03 06:56:20;;;;;;;7.80;5.97;;;;;;;;;;5110458;28;20805;-75
2022/10/03 06:59:08;;;;;;;8.77;5.33;;;;;;;;;;5109553;28;20452;-75
2022/10/03 07:01:48;;;;;;;9.10;5.50;;;;;;;;;;5106804;28;20448;-75
2022/10/03 07:04:35;;;;;;;12.23;6.00;;;;;;;;;;5111355;28;20520;-75
2022/10/03 07:07:15;;;;;;;11.17;6.43;;;;;;;;;;5110485;28;20444;-75
2022/10/03 07:09:53;;;;;;;9.90;6.80;;;;;;;;;;5111679;28;20752;-75
2022/10/03 07:12:46;;;;;;;9.67;5.60;;;;;;;;;;5111163;28;20522;-74
2022/10/03 07:15:25;;;;;;;7.50;5.70;;;;;;;;;;5110588;28;20926;-75
2022/10/03 07:18:13;;;;;;;11.80;6.17;;;;;;;;;;5110565;28;20448;-73
2022/10/03 07:21:06;;;;;;;12.20;6.13;;;;;;;;;;5111606;28;20435;-75
2022/10/03 07:23:49;;;;;;;8.87;5.63;;;;;;;;;;5111473;28;20448;-75
2022/10/03 07:26:31;;;;;;;13.63;8.50;;;;;;;;;;5111627;28;20452;-75
2022/10/03 07:29:18;;;;;;;11.70;7.23;;;;;;;;;;5098555;28;20442;-74
2022/10/03 07:32:03;;;;;;;13.57;8.07;;;;;;;;;;5111432;28;20956;-74
2022/10/03 07:34:49;;;;;;;11.33;6.60;;;;;;;;;;5111467;28;20475;-75
2022/10/03 07:40:36;;;;;;;10.33;6.40;;;;;;;;;;5111524;28;20431;-74
2022/10/03 07:43:16;;;;;;;9.87;6.30;;;;;;;;;;5110720;28;20918;-74
2022/10/03 07:45:46;;;;;;;17.43;8.37;;;;;;;;;;5110842;28;21021;-74
2022/10/03 07:48:32;;;;;;;12.67;7.57;;;;;;;;;;5111077;28;21012;-74
2022/10/03 07:51:08;;;;;;;8.53;7.20;;;;;;;;;;5106822;28;20493;-74
2022/10/03 07:53:44;;;;;;;9.80;7.37;;;;;;;;;;5112122;28;20432;-75
2022/10/03 07:56:21;;;;;;;9.57;6.73;;;;;;;;;;5111799;28;20707;-75
2022/10/03 07:59:06;;;;;;;10.07;7.07;;;;;;;;;;5117869;28;20869;-75
2022/10/03 08:01:46;;;;;;;12.63;7.47;;;;;;;;;;5121411;28;20590;-74
2022/10/03 08:04:29;;;;;;;9.17;6.80;;;;;;;;;;5122735;28;20443;-74
2022/10/03 08:07:02;;;;;;;10.67;6.27;;;;;;;;;;5124261;28;20452;-74
2022/10/03 08:09:47;;;;;;;13.53;6.40;;;;;;;;;;5128688;28;20442;-74
2022/10/03 08:12:30;;;;;;;10.67;5.57;;;;;;;;;;5121647;28;20484;-74
2022/10/03 08:15:03;;;;;;;12.27;6.37;;;;;;;;;;5112647;28;20981;-74
2022/10/03 08:17:50;;;;;;;10.87;6.97;;;;;;;;;;5099397;28;20448;-75
2022/10/03 08:20:23;;;;;;;9.93;6.60;;;;;;;;;;5115211;28;20436;-74
2022/10/03 08:22:55;;;;;;;8.60;6.37;;;;;;;;;;5114805;28;20451;-73
2022/10/03 08:25:30;;;;;;;10.10;5.67;;;;;;;;;;5114120;28;20440;-74
2022/10/03 08:28:16;;;;;;;8.27;5.93;;;;;;;;;;5115766;27;20431;-74
2022/10/03 08:30:52;;;;;;;8.53;5.80;;;;;;;;;;5105331;28;20945;-75
2022/10/03 08:33:40;;;;;;;8.17;5.77;;;;;;;;;;5116146;28;20442;-74
2022/10/03 08:36:28;;;;;;;9.27;5.80;;;;;;;;;;5118558;28;20481;-74
2022/10/03 08:39:01;;;;;;;10.60;6.10;;;;;;;;;;5105697;28;20808;-74
2022/10/03 08:41:43;;;;;;;10.60;6.10;;;;;;;;;;5115269;28;20456;-74
2022/10/03 08:44:24;;;;;;;11.23;6.60;;;;;;;;;;5113691;28;20447;-74
2022/10/03 08:47:15;;;;;;;8.13;5.30;;;;;;;;;;5101446;28;20440;-74
2022/10/03 08:50:04;;;;;;;12.17;6.17;;;;;;;;;;5099254;28;20549;-74
2022/10/03 08:52:35;;;;;;;9.00;5.50;;;;;;;;;;5113862;28;20440;-74
2022/10/03 08:55:23;;;;;;;10.00;6.57;;;;;;;;;;5113372;28;20524;-74
2022/10/03 08:57:59;;;;;;;9.50;5.77;;;;;;;;;;5113472;28;20436;-73
2022/10/03 09:00:29;;;;;;;13.00;5.70;;;;;;;;;;5114119;28;20836;-74
2022/10/03 09:03:30;;;;;;;8.60;5.07;;;;;;;;;;5099646;28;20784;-74
2022/10/03 09:06:23;;;;;;;6.40;5.07;;;;;;;;;;5112528;28;20444;-74
2022/10/03 09:09:06;;;;;;;5.53;3.83;;;;;;;;;;5113339;28;20434;-74
2022/10/03 09:11:40;;;;;;;5.20;4.23;;;;;;;;;;5113435;28;20806;-75
2022/10/03 09:14:21;;;;;;;8.97;5.70;;;;;;;;;;5112232;28;21035;-74
2022/10/03 09:16:54;;;;;;;7.77;5.40;;;;;;;;;;5113393;28;20451;-73
2022/10/03 09:19:33;;;;;;;5.60;4.20;;;;;;;;;;5113680;28;20447;-74
2022/10/03 09:22:18;;;;;;;7.03;5.07;;;;;;;;;;5112681;28;20938;-74
2022/10/03 09:25:04;;;;;;;4.90;4.30;;;;;;;;;;5113826;28;20454;-75
2022/10/03 09:27:42;;;;;;;14.43;4.30;;;;;;;;;;5102145;28;20436;-74
2022/10/03 09:30:22;;;;;;;4.70;3.53;;;;;;;;;;5112644;28;20450;-75
2022/10/03 09:33:22;;;;;;;8.43;4.77;;;;;;;;;;5113275;28;20455;-73
2022/10/03 09:35:58;;;;;;;10.30;4.50;;;;;;;;;;5103390;28;20494;-72
2022/10/03 09:38:40;;;;;;;8.40;4.43;;;;;;;;;;5113110;28;20448;-74
2022/10/03 09:41:27;;;;;;;5.73;3.87;;;;;;;;;;5111925;28;20475;-74
2022/10/03 09:44:12;;;;;;;7.67;4.53;;;;;;;;;;5102581;28;20456;-75
2022/10/03 09:47:21;;;;;;;8.20;3.77;;;;;;;;;;5112688;28;20450;-75
2022/10/03 09:49:46;;;;;;;5.30;3.20;;;;;;;;;;5112655;28;20505;-75
2022/10/03 09:52:25;;;;;;;4.53;2.73;;;;;;;;;;5112479;28;20523;-75
2022/10/03 09:55:12;;;;;;;6.70;3.33;;;;;;;;;;5099059;28;20479;-73
2022/10/03 09:57:49;;;;;;;6.17;3.63;;;;;;;;;;5112528;28;20938;-74
2022/10/03 10:00:18;;;;;;;5.90;3.43;;;;;;;;;;5112368;28;20452;-75
2022/10/03 10:03:03;;;;;;;5.83;2.90;;;;;;;;;;5112395;28;20933;-74
2022/10/03 10:05:56;;;;;;;4.37;2.77;;;;;;;;;;5112176;28;20448;-74
2022/10/03 10:08:37;;;;;;;10.10;3.37;;;;;;;;;;5112358;28;20440;-74
2022/10/03 10:11:09;;;;;;;4.00;2.87;;;;;;;;;;5098714;28;20494;-74
2022/10/03 10:13:52;;;;;;;7.97;2.90;;;;;;;;;;5112278;28;20483;-74
2022/10/03 10:16:31;;;;;;;9.90;3.17;;;;;;;;;;5078132;28;20486;-74
2022/10/03 10:19:25;;;;;;;6.90;3.10;;;;;;;;;;5111323;28;20444;-74
2022/10/03 10:22:06;;;;;;;3.57;3.07;;;;;;;;;;5081647;28;20455;-74
2022/10/03 10:24:58;;;;;;;6.30;3.27;;;;;;;;;;5112508;28;20454;-74
2022/10/03 10:27:40;;;;;;;7.10;3.20;;;;;;;;;;5096725;28;20456;-74
2022/10/03 10:30:16;;;;;;;4.07;3.13;;;;;;;;;;5111735;28;20446;-76
2022/10/03 10:33:01;;;;;;;3.53;2.90;;;;;;;;;;5112281;28;20443;-74
2022/10/03 10:35:58;;;;;;;3.40;2.80;;;;;;;;;;5100178;28;20471;-74
2022/10/03 10:38:31;;;;;;;3.67;2.80;;;;;;;;;;5112025;28;20449;-77
2022/10/03 10:41:28;;;;;;;4.30;2.77;;;;;;;;;;5110957;28;20463;-74
2022/10/03 10:44:14;;;;;;;3.03;2.60;;;;;;;;;;5019415;28;20472;-73
2022/10/03 10:47:05;;;;;;;6.53;4.00;;;;;;;;;;5103071;28;20452;-74
2022/10/03 10:49:51;;;;;;;5.27;3.20;;;;;;;;;;5112237;28;20452;-74
2022/10/03 10:52:33;;;;;;;13.37;8.13;;;;;;;;;;5112381;28;20443;-74
2022/10/03 10:55:13;;;;;;;9.17;4.60;;;;;;;;;;5110687;28;20504;-74
2022/10/03 10:58:02;;;;;;;6.83;2.60;;;;;;;;;;5112021;28;20451;-74
2022/10/03 11:00:40;;;;;;;5.03;3.50;;;;;;;;;;5111634;28;20447;-74
2022/10/03 11:03:37;;;;;;;3.80;2.63;;;;;;;;;;5111540;28;20451;-75
2022/10/03 11:06:26;;;;;;;5.40;3.67;;;;;;;;;;5111001;28;20443;-74
2022/10/03 11:09:20;;;;;;;3.93;3.47;;;;;;;;;;5111469;28;20450;-73
2022/10/03 11:12:06;;;;;;;12.13;3.37;;;;;;;;;;5075589;28;20480;-75
2022/10/03 11:14:52;;;;;;;5.00;3.10;;;;;;;;;;5100669;28;20450;-74
2022/10/03 11:17:33;;;;;;;4.27;2.83;;;;;;;;;;5111447;28;20443;-74
2022/10/03 11:20:15;;;;;;;7.13;3.17;;;;;;;;;;5111378;28;20770;-74
2022/10/03 11:22:58;;;;;;;5.90;4.20;;;;;;;;;;5111738;28;20454;-75
2022/10/03 11:25:45;;;;;;;6.47;3.23;;;;;;;;;;5111040;28;20547;-75
2022/10/03 11:28:45;;;;;;;3.70;2.50;;;;;;;;;;5110741;28;20481;-75
2022/10/03 11:32:07;;;;;;;7.70;4.07;;;12.20;99.90;;;;;;5047972;28;20482;-75
2022/10/03 11:35:23;;;;;;;4.10;2.63;;;16.50;1.00;;;;;;5048516;28;20435;-75
2022/10/03 11:37:55;;;;;;;9.23;3.07;;;16.10;1.00;;;;;;5076733;28;20456;-74
2022/10/03 11:40:31;;;;;;;4.93;3.07;;;16.50;1.00;;;;;;5111074;28;20452;-74
2022/10/03 11:43:21;;;;;;;4.50;2.60;;;16.30;1.00;;;;;;5110767;28;20445;-74
2022/10/03 11:45:54;;;;;;;2.83;2.40;;;16.20;1.00;;;;;;5076758;28;20456;-74
2022/10/03 11:48:37;;;;;;;2.33;2.13;;;16.00;1.00;;;;;;5099084;28;20444;-75
2022/10/03 11:51:14;;;;;;;5.03;2.67;;;15.80;1.00;;;;;;5107386;28;20477;-75
2022/10/03 11:53:45;;;;;;;4.77;2.63;;;15.80;1.00;;;;;;5112756;28;20443;-75
2022/10/03 11:56:35;;;;;;;5.63;3.43;;;15.60;1.00;;;;;;5113912;28;20595;-75
2022/10/03 11:59:41;;;;;;;6.80;2.50;;;15.60;1.00;;;;;;5114388;28;20527;-75
2022/10/03 12:02:16;;;;;;;4.97;2.20;;;16.00;1.00;;;;;;5103392;28;20462;-75
2022/10/03 12:04:58;;;;;;;2.17;1.97;;;16.10;99.90;;;;;;5114935;28;20434;-75
2022/10/03 12:10:56;;;;;;;2.80;1.67;;;16.60;99.90;;;;;;5114744;28;20799;-73
2022/10/03 12:13:30;;;;;;;2.97;1.83;;;16.50;99.90;;;;;;5114665;28;20446;-73
2022/10/03 12:15:57;;;;;;;3.30;2.30;;;16.60;99.90;;;;;;5113603;28;20472;-73
2022/10/03 12:18:48;;;;;;;2.40;1.80;;;16.40;99.90;;;;;;5114302;28;20859;-74
2022/10/03 12:21:22;;;;;;;3.50;2.10;;;16.70;99.90;;;;;;5114613;28;20515;-74
2022/10/03 12:24:13;;;;;;;3.87;1.80;;;16.90;99.90;;;;;;5115345;28;20448;-72
2022/10/03 12:26:51;;;;;;;5.17;1.60;;;17.20;99.90;;;;;;5114839;28;20945;-74
2022/10/03 12:29:20;;;;;;;1.90;1.70;;;17.40;99.90;;;;;;5115660;28;20439;-74
2022/10/03 12:31:59;;;;;;;3.43;2.07;;;17.50;99.90;;;;;;5115847;28;20447;-75
2022/10/03 12:34:48;;;;;;;2.57;2.10;;;17.70;99.90;;;;;;5116825;28;20782;-73
2022/10/03 12:37:32;;;;;;;4.60;2.93;;;17.30;99.90;;;;;;5115660;28;20475;-74
2022/10/03 12:40:09;;;;;;;2.80;1.97;;;17.30;99.90;;;;;;5115586;28;20443;-75
2022/10/03 12:42:44;;;;;;;4.53;2.23;;;17.30;99.90;;;;;;5120381;28;20470;-75
2022/10/03 12:45:21;;;;;;;4.03;1.87;;;17.20;99.90;;;;;;5116893;28;20439;-74
2022/10/03 12:48:01;;;;;;;3.17;1.70;;;16.90;99.90;;;;;;5115557;28;20451;-72
2022/10/03 12:50:39;;;;;;;2.07;1.87;;;16.50;99.90;;;;;;5113978;28;20534;-74
2022/10/03 12:53:27;;;;;;;3.07;1.63;;;16.40;99.90;;;;;;5113469;28;20447;-74
2022/10/03 12:56:17;;;;;;;3.17;2.20;;;16.40;99.90;;;;;;5112922;28;20472;-74
2022/10/03 12:58:52;;;;;;;2.73;1.70;;;16.80;99.90;;;;;;5113804;28;20922;-75
2022/10/03 13:01:29;;;;;;;2.70;1.70;;;16.70;99.90;;;;;;5113713;28;20975;-74
2022/10/03 13:04:00;;;;;;;4.90;2.00;;;17.00;99.90;;;;;;5112805;28;20455;-74
2022/10/03 13:06:38;;;;;;;3.23;2.10;;;17.10;99.90;;;;;;5113447;27;20444;-74
2022/10/03 13:09:19;;;;;;;2.87;1.80;;;17.10;99.90;;;;;;5113295;28;20455;-74
2022/10/03 13:12:01;;;;;;;3.03;1.70;;;17.20;99.90;;;;;;5113622;28;20482;-73
2022/10/03 13:14:44;;;;;;;3.17;1.83;;;17.60;99.90;;;;;;5113646;28;20523;-74
2022/10/03 13:17:23;;;;;;;3.40;1.70;;;17.50;99.90;;;;;;5112321;28;20507;-74
2022/10/03 13:19:56;;;;;;;2.93;2.20;;;18.00;99.90;;;;;;5112966;28;20436;-73
2022/10/03 13:22:35;;;;;;;2.20;1.53;;;17.70;99.90;;;;;;5100975;28;20432;-73
2022/10/03 13:25:07;;;;;;;3.10;2.10;;;17.60;99.90;;;;;;5112465;28;20440;-73
2022/10/03 13:27:44;;;;;;;4.27;2.13;;;17.40;99.90;;;;;;5113538;28;20444;-74
2022/10/03 13:30:19;;;;;;;2.80;1.60;;;17.70;99.90;;;;;;5112810;28;20504;-74
2022/10/03 13:32:52;;;;;;;2.17;1.73;;;17.50;99.90;;;;;;5113750;28;20441;-74
2022/10/03 13:38:48;;;;;;;3.13;2.33;;;18.10;99.90;;;;;;5112850;28;20482;-73
2022/10/03 13:41:24;;;;;;;5.07;1.70;;;18.00;99.90;;;;;;5112659;28;20553;-74
2022/10/03 13:44:01;;;;;;;9.73;2.40;;;17.90;99.90;;;;;;5112860;28;20436;-73
2022/10/03 13:46:37;;;;;;;2.80;1.70;;;17.70;99.90;;;;;;5112764;28;20489;-74
2022/10/03 13:49:10;;;;;;;1.57;1.47;;;17.50;99.90;;;;;;5112564;28;20436;-76
2022/10/03 13:51:46;;;;;;;1.60;1.50;;;17.40;99.90;;;;;;5100168;28;20443;-76
2022/10/03 13:54:20;;;;;;;2.90;2.03;;;17.40;99.90;;;;;;5111950;28;20453;-76
2022/10/03 13:56:55;;;;;;;2.93;1.90;;;17.20;99.90;;;;;;5112800;28;20495;-76
2022/10/03 13:59:42;;;;;;;2.70;1.90;;;16.80;99.90;;;;;;5112549;28;20446;-75
2022/10/03 14:02:38;;;;;;;2.50;2.00;;;16.70;99.90;;;;;;5111856;27;20447;-75
2022/10/03 14:05:25;;;;;;;2.83;2.20;;;17.10;99.90;;;;;;5111586;28;20444;-74
2022/10/03 14:07:57;;;;;;;2.50;1.53;;;17.30;99.90;;;;;;5112119;28;20435;-74
2022/10/03 14:10:48;;;;;;;3.17;1.43;;;17.70;99.90;;;;;;5112418;28;20455;-74
2022/10/03 14:13:25;;;;;;;4.10;2.03;;;17.80;99.90;;;;;;5112319;28;20448;-76
2022/10/03 14:15:54;;;;;;;4.93;1.97;;;;;;;;;;5097931;28;20450;-72
2022/10/03 14:18:36;;;;;;;3.70;1.67;;;;;;;;;;5111963;28;20456;-76
2022/10/03 14:21:19;;;;;;;2.03;1.60;;;;;;;;;;5102702;28;20435;-78
2022/10/03 14:23:49;;;;;;;2.07;1.50;;;;;;;;;;5106416;28;20515;-76
2022/10/03 14:26:20;;;;;;;3.87;2.07;;;;;;;;;;5100168;28;20448;-73
2022/10/03 14:28:50;;;;;;;5.90;2.37;;;;;;;;;;5112484;28;20444;-76
2022/10/03 14:31:24;;;;;;;2.40;1.80;;;;;;;;;;5112252;28;20875;-74
2022/10/03 14:33:55;;;;;;;3.30;2.07;;;;;;;;;;5102432;28;20431;-74
2022/10/03 14:36:32;;;;;;;2.00;1.47;;;;;;;;;;5096060;28;20955;-74
2022/10/03 14:39:07;;;;;;;1.93;1.60;;;;;;;;;;5098745;28;20453;-74
2022/10/03 14:41:39;;;;;;;1.93;1.73;;;;;;;;;;5108209;28;20459;-75
2022/10/03 14:44:10;;;;;;;1.43;1.33;;;;;;;;;;5111535;28;20440;-75
2022/10/03 14:46:42;;;;;;;2.23;1.73;;;;;;;;;;5098049;28;20629;-75
2022/10/03 14:49:15;;;;;;;3.33;2.03;;;;;;;;;;5101526;28;20438;-75
2022/10/03 14:51:46;;;;;;;2.37;1.60;;;;;;;;;;5098056;28;20912;-74
2022/10/03 14:54:18;;;;;;;3.30;2.20;;;;;;;;;;5104263;28;20468;-73
2022/10/03 14:56:47;;;;;;;8.40;1.80;;;;;;;;;;5107945;28;20463;-72
2022/10/03 14:59:18;;;;;;;2.90;1.80;;;;;;;;;;5103774;28;20443;-73
2022/10/03 15:01:52;;;;;;;3.70;1.70;;;;;;;;;;5107307;28;21256;-74
2022/10/03 15:04:26;;;;;;;2.83;1.97;;;;;;;;;;5108031;28;20463;-74
2022/10/03 15:06:55;;;;;;;2.13;1.70;;;;;;;;;;5101097;28;20447;-73
2022/10/03 15:09:24;;;;;;;2.90;1.90;;;;;;;;;;5100759;28;20756;-74
2022/10/03 15:11:58;;;;;;;6.10;1.70;;;;;;;;;;5107129;28;20474;-73
2022/10/03 15:14:28;;;;;;;3.20;2.00;;;17.80;99.90;;;;;;5096650;28;20452;-75
2022/10/03 15:16:59;;;;;;;2.40;1.47;;;20.80;99.90;;;;;;5106042;28;20482;-76
2022/10/03 15:19:32;;;;;;;2.27;1.63;;;21.50;99.90;;;;;;5094566;28;20448;-76
2022/10/03 15:22:07;;;;;;;2.60;1.40;;;21.50;99.90;;;;;;5105835;28;20453;-74
2022/10/03 15:24:35;;;;;;;1.97;1.70;;;21.90;99.80;;;;;;5102535;28;20450;-74
2022/10/03 15:27:06;;;;;;;4.20;2.13;;;22.10;92.30;;;;;;5108296;28;20466;-73
2022/10/03 15:29:34;;;;;;;2.80;1.93;;;22.20;90.00;;;;;;5113389;28;20447;-74
2022/10/03 15:32:05;;;;;;;2.97;1.60;;;22.30;84.30;;;;;;5112353;28;20451;-74